logo
Rechercher aéroport 
image banner adimage banner adimage banner ad
image banner ad

FABRED - Bredasdorp City

Situé à , South Africa

ICAO - , IATA -

Données fournies par Airmate  

Information générale

Coordonnées: S34°32'54" E20°5'6"
Élévation : 82 feet MSL.
 
Voir autres Aéroports à Western Cape

Données opérationnelles

Special qualification required
Heure actuelle UTC:
Heure actuelle locale:
Météo à : - ( 0 km )
METAR: LWSK 290950Z VRB03KT 9999 SCT032 24/15 Q1013 NOSIG
Voir NOTAMs / SUP AIP / TFR affectant cet aéroport [VIEW]
Fréquences de communication: [VIEW]

Pistes:

Identifiant RWYQFULongueur (ft)Largeur (ft)SurfaceLDA (ft)
11143°410149SAND
29323°410149SAND
13113°295366SAND
31293°295366SAND
0856°262566SAND
26236°262566SAND

Coordonnées de l'aéroport

Adresse: South Africa

Vue satellite de FABRED